Vallejo, CA

7:22 PM PDT on September 21, 2014 (GMT -0700)
Napa County | Change Station
CLOSE
Current Station
Airport
Location: Napa County,
Elevation: 33 ft
Nearby Weather Stations

Elev 33 ft 38.21 °N, 122.28 °W | Updated 28 minutes ago

Clear
Clear
66 °F
Feels Like 66 °F
N
17
Wind Variable Wind from West
Gusts 22 mph

Today
High -- | Low -- °F
--% Chance of Precip.
Yesterday
High -- | Low -- °F
Precip. -- in
6:55 AM 7:07 PM
Waning Crescent, 4% visible
Pressure 29.94 in
Visibility 10.0 miles
Clouds Clear
Dew Point 57 °F
Humidity 73%
Rainfall 0.00 in
Snow Depth 1 in , 0 in , 1 in
UV 0 out of 12
Pollen 3.80 out of 12
Ozone Good
Flu Activity Not available.
METAR KAPC 220154Z AUTO 26015G19KT 10SM CLR 19/14 A2997 RMK AO2 SLP139 T01890139

More Conditions Fewer Conditions

Pressure 29.94 in
Visibility 10.0 miles
Clouds Clear
Dew Point 57 °F
Humidity 73%
Rainfall 0.00 in
Snow Depth 1 in , 0 in , 1 in
UV 0 out of 12
Pollen 3.80 out of 12
Ozone Good
Flu Activity Not available.
METAR KAPC 220154Z AUTO 26015G19KT 10SM CLR 19/14 A2997 RMK AO2 SLP139 T01890139

More Conditions Fewer Conditions

10-Day Weather Forecast

Almanac

Astronomy

Sep. 21, 2014 Rise Set
Actual Time 6:55 AM PDT 7:07 PM PDT
Civil Twilight 6:29 AM PDT 7:33 PM PDT
Nautical Twilight 5:58 AM PDT 8:04 PM PDT
Astronomical Twilight 5:27 AM PDT 8:35 PM PDT
Moon 4:36 AM PDT (9/21) 5:45 PM PDT (9/21)
Length of Visible Light 13h 04m
Length of Day
12h 11m
Tomorrow will be 2m 27s shorter.
Waning Crescent, 4% of the Moon is Illuminated
Today
Waning Crescent
Sep 24
New
Oct 1
First Quarter
Oct 8
Full
Oct 15
Last Quarter

Today's Extremes

State Highs State Lows

Community

WunderPhotos

Upload Photos

1,755,364 photos uploaded!

WunderBlogs® & News

Nearby

Air Quality

  Air Quality AQ Index Pollutant
Yesterday Good
OZONE
Current Good
OZONE
Sunday Moderate
PM2.5
Monday Good
OZONE
Tuesday Good
OZONE
Wednesday Good
OZONE
Thursday Good
OZONE
Friday Good
OZONE

Snow Depth

Station Depth Elevation
Leavitt Meadows 1 in 7200 ft
Rubicon #2 0 in 7500 ft
CSS Lab 1 in 6900 ft
Spratt Creek 0 in 6200 ft
Monitor Pass 0 in 8350 ft

Earthquake Activity

City Distance Mag. Time & Date
Sonoma, California 14 miles 2.7 1:17 PM PDT
2014-09-21
Cloverdale, California 57 miles 2.5 9:15 PM PDT
2014-09-20
Livermore, California 43 miles 2.6 3:37 AM PDT
2014-09-19
The Geysers, California 48 miles 2.5 11:29 PM PDT
2014-09-17
Minimum magnitude displayed is 2.5.

Coastal Water Temperatures

Place Temperature
San Francisco, CA 66.0 °F
Richmond, CA 68.0 °F
Port Chicago, CA 70.0 °F

Nearby Weather Stations